sensor_id;sensor_type;location;lat;lon;timestamp;temperature;humidity
67557;DHT22;54387;53.526;49.300;2022-11-11T00:01:53;6.60;72.90
67557;DHT22;54387;53.526;49.300;2022-11-11T00:04:19;6.70;72.70
67557;DHT22;54387;53.526;49.300;2022-11-11T00:06:45;6.80;72.60
67557;DHT22;54387;53.526;49.300;2022-11-11T00:09:11;6.80;72.30
67557;DHT22;54387;53.526;49.300;2022-11-11T00:11:37;6.90;72.20
67557;DHT22;54387;53.526;49.300;2022-11-11T00:14:03;6.90;72.10
67557;DHT22;54387;53.526;49.300;2022-11-11T00:16:29;7.00;72.00
67557;DHT22;54387;53.526;49.300;2022-11-11T00:19:15;7.00;71.70
67557;DHT22;54387;53.526;49.300;2022-11-11T00:22:00;7.00;71.60
67557;DHT22;54387;53.526;49.300;2022-11-11T00:24:44;7.00;71.50
67557;DHT22;54387;53.526;49.300;2022-11-11T00:27:28;6.90;71.60
67557;DHT22;54387;53.526;49.300;2022-11-11T00:29:55;6.90;71.60
67557;DHT22;54387;53.526;49.300;2022-11-11T00:32:21;6.90;71.60
67557;DHT22;54387;53.526;49.300;2022-11-11T00:34:56;6.80;71.60
67557;DHT22;54387;53.526;49.300;2022-11-11T00:37:41;6.80;71.80
67557;DHT22;54387;53.526;49.300;2022-11-11T00:40:07;6.70;71.80
67557;DHT22;54387;53.526;49.300;2022-11-11T00:42:33;6.70;71.90
67557;DHT22;54387;53.526;49.300;2022-11-11T00:44:59;6.70;71.90
67557;DHT22;54387;53.526;49.300;2022-11-11T00:47:26;6.70;71.90
67557;DHT22;54387;53.526;49.300;2022-11-11T00:50:12;6.80;72.40
67557;DHT22;54387;53.526;49.300;2022-11-11T00:52:58;6.80;71.80
67557;DHT22;54387;53.526;49.300;2022-11-11T00:55:24;6.80;71.80
67557;DHT22;54387;53.526;49.300;2022-11-11T00:57:50;6.80;71.70
67557;DHT22;54387;53.526;49.300;2022-11-11T01:00:16;6.80;71.60
67557;DHT22;54387;53.526;49.300;2022-11-11T01:02:41;6.90;71.70
67557;DHT22;54387;53.526;49.300;2022-11-11T01:05:08;6.80;71.50
67557;DHT22;54387;53.526;49.300;2022-11-11T01:07:34;6.80;71.50
67557;DHT22;54387;53.526;49.300;2022-11-11T01:10:00;6.90;71.50
67557;DHT22;54387;53.526;49.300;2022-11-11T01:12:26;6.80;71.40
67557;DHT22;54387;53.526;49.300;2022-11-11T01:14:52;6.80;71.40
67557;DHT22;54387;53.526;49.300;2022-11-11T01:17:18;6.80;71.40
67557;DHT22;54387;53.526;49.300;2022-11-11T01:19:44;6.80;71.40
67557;DHT22;54387;53.526;49.300;2022-11-11T01:22:10;6.90;71.50
67557;DHT22;54387;53.526;49.300;2022-11-11T01:24:36;6.90;71.40
67557;DHT22;54387;53.526;49.300;2022-11-11T01:27:04;7.00;71.30
67557;DHT22;54387;53.526;49.300;2022-11-11T01:29:30;7.00;71.20
67557;DHT22;54387;53.526;49.300;2022-11-11T01:31:56;7.00;71.10
67557;DHT22;54387;53.526;49.300;2022-11-11T01:34:22;7.00;71.10
67557;DHT22;54387;53.526;49.300;2022-11-11T01:36:48;7.00;70.90
67557;DHT22;54387;53.526;49.300;2022-11-11T01:39:14;7.00;70.80
67557;DHT22;54387;53.526;49.300;2022-11-11T01:41:40;7.00;70.80
67557;DHT22;54387;53.526;49.300;2022-11-11T01:44:13;7.00;70.70
67557;DHT22;54387;53.526;49.300;2022-11-11T01:49:20;7.00;70.70
67557;DHT22;54387;53.526;49.300;2022-11-11T01:54:37;7.00;70.60
67557;DHT22;54387;53.526;49.300;2022-11-11T01:57:03;7.00;70.40
67557;DHT22;54387;53.526;49.300;2022-11-11T01:59:31;6.90;70.40
67557;DHT22;54387;53.526;49.300;2022-11-11T02:01:58;6.90;70.50
67557;DHT22;54387;53.526;49.300;2022-11-11T02:04:24;6.90;70.50
67557;DHT22;54387;53.526;49.300;2022-11-11T02:07:09;6.90;70.60
67557;DHT22;54387;53.526;49.300;2022-11-11T02:09:37;6.90;70.60
67557;DHT22;54387;53.526;49.300;2022-11-11T02:12:05;6.90;70.50
67557;DHT22;54387;53.526;49.300;2022-11-11T02:14:53;6.90;70.50
67557;DHT22;54387;53.526;49.300;2022-11-11T02:17:20;6.90;70.50
67557;DHT22;54387;53.526;49.300;2022-11-11T02:19:49;6.90;70.40
67557;DHT22;54387;53.526;49.300;2022-11-11T02:22:26;6.90;70.50
67557;DHT22;54387;53.526;49.300;2022-11-11T02:24:54;6.90;70.40
67557;DHT22;54387;53.526;49.300;2022-11-11T02:27:21;7.00;70.40
67557;DHT22;54387;53.526;49.300;2022-11-11T02:29:48;6.90;70.30
67557;DHT22;54387;53.526;49.300;2022-11-11T02:32:15;7.00;70.40
67557;DHT22;54387;53.526;49.300;2022-11-11T02:34:41;6.90;70.30
67557;DHT22;54387;53.526;49.300;2022-11-11T02:37:07;7.00;70.40
67557;DHT22;54387;53.526;49.300;2022-11-11T02:39:34;7.00;70.20
67557;DHT22;54387;53.526;49.300;2022-11-11T02:42:02;6.90;70.00
67557;DHT22;54387;53.526;49.300;2022-11-11T02:44:35;6.90;70.10
67557;DHT22;54387;53.526;49.300;2022-11-11T02:47:02;6.90;70.00
67557;DHT22;54387;53.526;49.300;2022-11-11T02:49:28;6.90;69.90
67557;DHT22;54387;53.526;49.300;2022-11-11T02:51:54;6.90;69.80
67557;DHT22;54387;53.526;49.300;2022-11-11T02:54:20;6.90;69.80
67557;DHT22;54387;53.526;49.300;2022-11-11T02:56:46;6.90;69.50
67557;DHT22;54387;53.526;49.300;2022-11-11T02:59:31;6.90;69.30
67557;DHT22;54387;53.526;49.300;2022-11-11T03:01:57;6.90;69.20
67557;DHT22;54387;53.526;49.300;2022-11-11T03:04:23;6.90;69.10
67557;DHT22;54387;53.526;49.300;2022-11-11T03:06:49;6.90;68.90
67557;DHT22;54387;53.526;49.300;2022-11-11T03:09:15;6.90;69.00
67557;DHT22;54387;53.526;49.300;2022-11-11T03:11:42;6.90;69.00
67557;DHT22;54387;53.526;49.300;2022-11-11T03:14:08;7.00;69.10
67557;DHT22;54387;53.526;49.300;2022-11-11T03:16:34;7.00;68.90
67557;DHT22;54387;53.526;49.300;2022-11-11T03:19:19;7.00;68.80
67557;DHT22;54387;53.526;49.300;2022-11-11T03:21:45;7.00;68.80
67557;DHT22;54387;53.526;49.300;2022-11-11T03:24:11;7.00;68.80
67557;DHT22;54387;53.526;49.300;2022-11-11T03:26:37;7.00;68.80
67557;DHT22;54387;53.526;49.300;2022-11-11T03:29:03;7.00;68.60
67557;DHT22;54387;53.526;49.300;2022-11-11T03:31:29;7.10;68.60
67557;DHT22;54387;53.526;49.300;2022-11-11T03:33:55;7.10;68.30
67557;DHT22;54387;53.526;49.300;2022-11-11T03:36:41;7.00;68.30
67557;DHT22;54387;53.526;49.300;2022-11-11T03:39:25;7.10;68.40
67557;DHT22;54387;53.526;49.300;2022-11-11T03:41:51;7.00;68.40
67557;DHT22;54387;53.526;49.300;2022-11-11T03:44:17;7.00;68.30
67557;DHT22;54387;53.526;49.300;2022-11-11T03:46:43;7.00;68.20
67557;DHT22;54387;53.526;49.300;2022-11-11T03:49:09;7.00;68.10
67557;DHT22;54387;53.526;49.300;2022-11-11T03:51:35;7.00;68.20
67557;DHT22;54387;53.526;49.300;2022-11-11T03:54:07;7.00;68.10
67557;DHT22;54387;53.526;49.300;2022-11-11T03:56:32;7.00;68.20
67557;DHT22;54387;53.526;49.300;2022-11-11T03:59:00;6.90;68.20
67557;DHT22;54387;53.526;49.300;2022-11-11T04:01:26;7.00;68.20
67557;DHT22;54387;53.526;49.300;2022-11-11T04:04:25;6.90;68.60
67557;DHT22;54387;53.526;49.300;2022-11-11T04:07:10;6.90;68.10
67557;DHT22;54387;53.526;49.300;2022-11-11T04:09:54;6.90;68.00
67557;DHT22;54387;53.526;49.300;2022-11-11T04:12:39;6.90;68.10
67557;DHT22;54387;53.526;49.300;2022-11-11T04:15:24;6.90;68.10
67557;DHT22;54387;53.526;49.300;2022-11-11T04:18:09;7.00;68.10
67557;DHT22;54387;53.526;49.300;2022-11-11T04:20:35;7.00;67.90
67557;DHT22;54387;53.526;49.300;2022-11-11T04:23:19;7.00;67.70
67557;DHT22;54387;53.526;49.300;2022-11-11T04:25:45;6.90;67.60
67557;DHT22;54387;53.526;49.300;2022-11-11T04:28:14;6.90;67.60
67557;DHT22;54387;53.526;49.300;2022-11-11T04:30:59;6.90;67.60
67557;DHT22;54387;53.526;49.300;2022-11-11T04:33:25;6.80;67.60
67557;DHT22;54387;53.526;49.300;2022-11-11T04:35:51;6.80;67.70
67557;DHT22;54387;53.526;49.300;2022-11-11T04:38:17;6.80;67.60
67557;DHT22;54387;53.526;49.300;2022-11-11T04:41:01;6.90;67.80
67557;DHT22;54387;53.526;49.300;2022-11-11T04:43:31;6.90;67.70
67557;DHT22;54387;53.526;49.300;2022-11-11T04:46:17;6.90;67.70
67557;DHT22;54387;53.526;49.300;2022-11-11T04:48:43;7.00;67.20
67557;DHT22;54387;53.526;49.300;2022-11-11T04:51:09;7.00;67.20
67557;DHT22;54387;53.526;49.300;2022-11-11T04:53:35;7.00;67.20
67557;DHT22;54387;53.526;49.300;2022-11-11T04:56:02;7.00;67.10
67557;DHT22;54387;53.526;49.300;2022-11-11T04:58:46;7.00;67.00
67557;DHT22;54387;53.526;49.300;2022-11-11T05:01:12;7.10;67.10
67557;DHT22;54387;53.526;49.300;2022-11-11T05:03:58;7.20;66.80
67557;DHT22;54387;53.526;49.300;2022-11-11T05:06:24;7.20;66.60
67557;DHT22;54387;53.526;49.300;2022-11-11T05:09:08;7.10;66.50
67557;DHT22;54387;53.526;49.300;2022-11-11T05:11:34;7.10;66.50
67557;DHT22;54387;53.526;49.300;2022-11-11T05:14:04;7.10;66.60
67557;DHT22;54387;53.526;49.300;2022-11-11T05:16:53;7.10;66.60
67557;DHT22;54387;53.526;49.300;2022-11-11T05:19:38;7.10;66.50
67557;DHT22;54387;53.526;49.300;2022-11-11T05:22:31;7.10;66.40
67557;DHT22;54387;53.526;49.300;2022-11-11T05:24:57;7.10;66.20
67557;DHT22;54387;53.526;49.300;2022-11-11T05:27:42;7.10;66.10
67557;DHT22;54387;53.526;49.300;2022-11-11T05:30:09;7.10;66.20
67557;DHT22;54387;53.526;49.300;2022-11-11T05:32:35;7.10;66.20
67557;DHT22;54387;53.526;49.300;2022-11-11T05:35:01;7.10;66.20
67557;DHT22;54387;53.526;49.300;2022-11-11T05:37:27;7.20;66.30
67557;DHT22;54387;53.526;49.300;2022-11-11T05:39:53;7.20;66.20
67557;DHT22;54387;53.526;49.300;2022-11-11T05:42:20;7.20;66.30
67557;DHT22;54387;53.526;49.300;2022-11-11T05:44:46;7.20;66.00
67557;DHT22;54387;53.526;49.300;2022-11-11T05:47:12;7.30;65.90
67557;DHT22;54387;53.526;49.300;2022-11-11T05:49:39;7.30;65.90
67557;DHT22;54387;53.526;49.300;2022-11-11T05:52:05;7.30;65.70
67557;DHT22;54387;53.526;49.300;2022-11-11T05:54:32;7.30;65.40
67557;DHT22;54387;53.526;49.300;2022-11-11T05:56:58;7.20;65.50
67557;DHT22;54387;53.526;49.300;2022-11-11T05:59:25;7.20;65.50
67557;DHT22;54387;53.526;49.300;2022-11-11T06:01:51;7.10;65.50
67557;DHT22;54387;53.526;49.300;2022-11-11T06:04:17;7.10;65.50
67557;DHT22;54387;53.526;49.300;2022-11-11T06:06:43;7.10;65.60
67557;DHT22;54387;53.526;49.300;2022-11-11T06:09:09;7.10;65.70
67557;DHT22;54387;53.526;49.300;2022-11-11T06:11:35;7.10;65.60
67557;DHT22;54387;53.526;49.300;2022-11-11T06:14:01;7.10;65.60
67557;DHT22;54387;53.526;49.300;2022-11-11T06:16:28;7.10;65.50
67557;DHT22;54387;53.526;49.300;2022-11-11T06:18:54;7.00;65.60
67557;DHT22;54387;53.526;49.300;2022-11-11T06:21:20;7.10;65.60
67557;DHT22;54387;53.526;49.300;2022-11-11T06:23:46;7.10;65.70
67557;DHT22;54387;53.526;49.300;2022-11-11T06:26:12;7.10;65.70
67557;DHT22;54387;53.526;49.300;2022-11-11T06:28:45;7.10;65.60
67557;DHT22;54387;53.526;49.300;2022-11-11T06:31:13;7.10;66.10
67557;DHT22;54387;53.526;49.300;2022-11-11T06:33:39;7.10;65.40
67557;DHT22;54387;53.526;49.300;2022-11-11T06:36:05;7.10;65.30
67557;DHT22;54387;53.526;49.300;2022-11-11T06:38:31;7.10;65.10
67557;DHT22;54387;53.526;49.300;2022-11-11T06:40:57;7.10;65.10
67557;DHT22;54387;53.526;49.300;2022-11-11T06:43:23;7.00;65.10
67557;DHT22;54387;53.526;49.300;2022-11-11T06:45:50;7.00;65.10
67557;DHT22;54387;53.526;49.300;2022-11-11T06:48:21;7.00;65.10
67557;DHT22;54387;53.526;49.300;2022-11-11T06:50:48;7.00;65.10
67557;DHT22;54387;53.526;49.300;2022-11-11T06:53:15;7.00;65.00
67557;DHT22;54387;53.526;49.300;2022-11-11T06:55:42;7.10;64.90
67557;DHT22;54387;53.526;49.300;2022-11-11T07:00:34;7.00;64.70
67557;DHT22;54387;53.526;49.300;2022-11-11T07:03:01;6.90;64.80
67557;DHT22;54387;53.526;49.300;2022-11-11T07:05:27;7.00;64.80
67557;DHT22;54387;53.526;49.300;2022-11-11T07:07:53;7.00;64.80
67557;DHT22;54387;53.526;49.300;2022-11-11T07:10:19;7.00;64.80
67557;DHT22;54387;53.526;49.300;2022-11-11T07:12:45;7.10;64.80
67557;DHT22;54387;53.526;49.300;2022-11-11T07:15:12;7.20;64.60
67557;DHT22;54387;53.526;49.300;2022-11-11T07:17:38;7.30;64.60
67557;DHT22;54387;53.526;49.300;2022-11-11T07:20:04;7.40;64.30
67557;DHT22;54387;53.526;49.300;2022-11-11T07:22:31;7.40;64.30
67557;DHT22;54387;53.526;49.300;2022-11-11T07:25:01;7.50;64.30
67557;DHT22;54387;53.526;49.300;2022-11-11T07:27:27;7.50;64.30
67557;DHT22;54387;53.526;49.300;2022-11-11T07:29:53;7.60;64.30
67557;DHT22;54387;53.526;49.300;2022-11-11T07:32:23;7.60;64.60
67557;DHT22;54387;53.526;49.300;2022-11-11T07:34:49;7.70;63.90
67557;DHT22;54387;53.526;49.300;2022-11-11T07:37:17;7.60;63.90
67557;DHT22;54387;53.526;49.300;2022-11-11T07:39:44;7.60;63.90
67557;DHT22;54387;53.526;49.300;2022-11-11T07:42:10;7.60;63.90
67557;DHT22;54387;53.526;49.300;2022-11-11T07:44:36;7.60;64.00
67557;DHT22;54387;53.526;49.300;2022-11-11T07:47:02;7.60;64.00
67557;DHT22;54387;53.526;49.300;2022-11-11T07:49:28;7.60;64.00
67557;DHT22;54387;53.526;49.300;2022-11-11T07:51:54;7.60;64.00
67557;DHT22;54387;53.526;49.300;2022-11-11T07:54:20;7.70;64.20
67557;DHT22;54387;53.526;49.300;2022-11-11T07:56:46;7.80;64.10
67557;DHT22;54387;53.526;49.300;2022-11-11T07:59:13;7.90;63.80
67557;DHT22;54387;53.526;49.300;2022-11-11T08:01:39;8.00;64.00
67557;DHT22;54387;53.526;49.300;2022-11-11T08:04:05;8.00;63.70
67557;DHT22;54387;53.526;49.300;2022-11-11T08:06:31;8.00;63.30
67557;DHT22;54387;53.526;49.300;2022-11-11T08:08:57;8.00;63.40
67557;DHT22;54387;53.526;49.300;2022-11-11T08:11:23;8.00;63.50
67557;DHT22;54387;53.526;49.300;2022-11-11T08:14:07;8.00;63.60
67557;DHT22;54387;53.526;49.300;2022-11-11T08:16:33;8.20;63.60
67557;DHT22;54387;53.526;49.300;2022-11-11T08:18:59;8.20;63.30
67557;DHT22;54387;53.526;49.300;2022-11-11T08:21:26;8.30;63.20
67557;DHT22;54387;53.526;49.300;2022-11-11T08:23:52;8.30;63.40
67557;DHT22;54387;53.526;49.300;2022-11-11T08:26:19;8.30;63.40
67557;DHT22;54387;53.526;49.300;2022-11-11T08:28:46;8.30;63.30
67557;DHT22;54387;53.526;49.300;2022-11-11T08:31:19;8.40;63.50
67557;DHT22;54387;53.526;49.300;2022-11-11T08:33:45;8.50;63.50
67557;DHT22;54387;53.526;49.300;2022-11-11T08:36:11;8.50;63.30
67557;DHT22;54387;53.526;49.300;2022-11-11T08:38:37;8.60;63.10
67557;DHT22;54387;53.526;49.300;2022-11-11T08:41:05;8.60;63.20
67557;DHT22;54387;53.526;49.300;2022-11-11T08:43:31;8.60;63.00
67557;DHT22;54387;53.526;49.300;2022-11-11T08:46:00;8.60;63.10
67557;DHT22;54387;53.526;49.300;2022-11-11T08:48:31;8.70;63.30
67557;DHT22;54387;53.526;49.300;2022-11-11T08:50:57;8.80;63.20
67557;DHT22;54387;53.526;49.300;2022-11-11T08:53:24;8.80;62.90
67557;DHT22;54387;53.526;49.300;2022-11-11T08:55:54;8.80;62.90
67557;DHT22;54387;53.526;49.300;2022-11-11T08:58:22;8.90;62.90
67557;DHT22;54387;53.526;49.300;2022-11-11T09:00:48;8.90;63.00
67557;DHT22;54387;53.526;49.300;2022-11-11T09:03:14;9.00;62.80
67557;DHT22;54387;53.526;49.300;2022-11-11T09:05:41;9.00;62.60
67557;DHT22;54387;53.526;49.300;2022-11-11T09:08:07;8.90;62.60
67557;DHT22;54387;53.526;49.300;2022-11-11T09:10:35;8.90;62.70
67557;DHT22;54387;53.526;49.300;2022-11-11T09:13:01;8.80;62.90
67557;DHT22;54387;53.526;49.300;2022-11-11T09:15:29;8.70;63.00
67557;DHT22;54387;53.526;49.300;2022-11-11T09:17:55;8.60;63.20
67557;DHT22;54387;53.526;49.300;2022-11-11T09:20:22;8.50;63.30
67557;DHT22;54387;53.526;49.300;2022-11-11T09:22:48;8.50;63.40
67557;DHT22;54387;53.526;49.300;2022-11-11T09:25:15;8.50;63.50
67557;DHT22;54387;53.526;49.300;2022-11-11T09:27:44;8.50;64.10
67557;DHT22;54387;53.526;49.300;2022-11-11T09:30:18;8.60;63.50
67557;DHT22;54387;53.526;49.300;2022-11-11T09:32:44;8.60;63.40
67557;DHT22;54387;53.526;49.300;2022-11-11T09:35:10;8.60;63.40
67557;DHT22;54387;53.526;49.300;2022-11-11T09:37:36;8.60;63.40
67557;DHT22;54387;53.526;49.300;2022-11-11T09:40:02;8.60;63.50
67557;DHT22;54387;53.526;49.300;2022-11-11T09:45:17;8.60;63.40
67557;DHT22;54387;53.526;49.300;2022-11-11T09:47:58;8.70;63.50
67557;DHT22;54387;53.526;49.300;2022-11-11T09:50:27;8.70;63.20
67557;DHT22;54387;53.526;49.300;2022-11-11T09:53:03;8.70;63.30
67557;DHT22;54387;53.526;49.300;2022-11-11T09:55:35;8.80;63.20
67557;DHT22;54387;53.526;49.300;2022-11-11T09:58:04;8.80;63.10
67557;DHT22;54387;53.526;49.300;2022-11-11T10:00:32;8.80;63.10
67557;DHT22;54387;53.526;49.300;2022-11-11T10:05:39;9.00;63.10
67557;DHT22;54387;53.526;49.300;2022-11-11T10:08:11;9.00;63.00
67557;DHT22;54387;53.526;49.300;2022-11-11T10:10:45;9.10;62.60
67557;DHT22;54387;53.526;49.300;2022-11-11T10:13:13;9.10;62.50
67557;DHT22;54387;53.526;49.300;2022-11-11T10:15:42;9.20;62.60
67557;DHT22;54387;53.526;49.300;2022-11-11T10:20:57;9.20;62.40
67557;DHT22;54387;53.526;49.300;2022-11-11T10:23:26;9.20;62.50
67557;DHT22;54387;53.526;49.300;2022-11-11T10:25:56;9.20;62.50
67557;DHT22;54387;53.526;49.300;2022-11-11T10:28:24;9.10;62.40
67557;DHT22;54387;53.526;49.300;2022-11-11T10:30:51;9.10;62.40
67557;DHT22;54387;53.526;49.300;2022-11-11T10:33:19;9.10;62.50
67557;DHT22;54387;53.526;49.300;2022-11-11T10:35:46;9.10;62.60
67557;DHT22;54387;53.526;49.300;2022-11-11T10:38:16;9.10;62.60
67557;DHT22;54387;53.526;49.300;2022-11-11T10:40:49;9.10;62.60
67557;DHT22;54387;53.526;49.300;2022-11-11T10:45:48;9.10;62.60
67557;DHT22;54387;53.526;49.300;2022-11-11T10:48:17;9.10;62.60
67557;DHT22;54387;53.526;49.300;2022-11-11T10:50:49;9.10;62.70
67557;DHT22;54387;53.526;49.300;2022-11-11T10:58:17;9.10;62.70
67557;DHT22;54387;53.526;49.300;2022-11-11T11:00:45;9.10;62.80
67557;DHT22;54387;53.526;49.300;2022-11-11T11:03:24;9.10;62.80
67557;DHT22;54387;53.526;49.300;2022-11-11T11:05:58;9.10;62.80
67557;DHT22;54387;53.526;49.300;2022-11-11T11:08:29;9.10;62.80
67557;DHT22;54387;53.526;49.300;2022-11-11T11:11:01;9.10;62.70
67557;DHT22;54387;53.526;49.300;2022-11-11T11:16:05;9.10;62.60
67557;DHT22;54387;53.526;49.300;2022-11-11T11:18:33;9.00;62.60
67557;DHT22;54387;53.526;49.300;2022-11-11T11:21:00;8.90;62.70
67557;DHT22;54387;53.526;49.300;2022-11-11T11:23:42;8.90;62.70
67557;DHT22;54387;53.526;49.300;2022-11-11T11:26:10;8.90;62.80
67557;DHT22;54387;53.526;49.300;2022-11-11T11:28:53;8.90;62.80
67557;DHT22;54387;53.526;49.300;2022-11-11T11:31:23;8.90;62.80
67557;DHT22;54387;53.526;49.300;2022-11-11T11:33:59;8.90;62.80
67557;DHT22;54387;53.526;49.300;2022-11-11T11:36:25;8.90;62.70
67557;DHT22;54387;53.526;49.300;2022-11-11T11:38:51;8.90;62.80
67557;DHT22;54387;53.526;49.300;2022-11-11T11:41:17;8.90;62.80
67557;DHT22;54387;53.526;49.300;2022-11-11T11:44:01;8.90;62.70
67557;DHT22;54387;53.526;49.300;2022-11-11T11:46:28;8.90;62.70
67557;DHT22;54387;53.526;49.300;2022-11-11T11:57:01;8.80;62.60
67557;DHT22;54387;53.526;49.300;2022-11-11T12:04:55;8.70;62.60
67557;DHT22;54387;53.526;49.300;2022-11-11T12:10:00;8.70;62.60
67557;DHT22;54387;53.526;49.300;2022-11-11T12:17:35;8.70;62.60
67557;DHT22;54387;53.526;49.300;2022-11-11T12:23:15;8.70;62.70
67557;DHT22;54387;53.526;49.300;2022-11-11T12:38:57;8.50;62.80
67557;DHT22;54387;53.526;49.300;2022-11-11T12:59:24;8.20;63.20
67557;DHT22;54387;53.526;49.300;2022-11-11T13:15:10;8.10;63.40
67557;DHT22;54387;53.526;49.300;2022-11-11T13:17:38;8.10;63.50
67557;DHT22;54387;53.526;49.300;2022-11-11T13:22:30;8.10;63.40
67557;DHT22;54387;53.526;49.300;2022-11-11T13:24:59;8.20;63.50
67557;DHT22;54387;53.526;49.300;2022-11-11T13:27:30;8.20;63.40
67557;DHT22;54387;53.526;49.300;2022-11-11T13:32:26;8.20;63.30
67557;DHT22;54387;53.526;49.300;2022-11-11T13:34:54;8.20;63.30
67557;DHT22;54387;53.526;49.300;2022-11-11T13:37:27;8.20;63.10
67557;DHT22;54387;53.526;49.300;2022-11-11T13:40:02;8.20;63.10
67557;DHT22;54387;53.526;49.300;2022-11-11T13:42:31;8.20;63.00
67557;DHT22;54387;53.526;49.300;2022-11-11T13:45:18;8.10;63.10
67557;DHT22;54387;53.526;49.300;2022-11-11T13:47:47;8.10;63.00
67557;DHT22;54387;53.526;49.300;2022-11-11T13:50:32;8.00;63.10
67557;DHT22;54387;53.526;49.300;2022-11-11T13:53:12;8.00;63.00
67557;DHT22;54387;53.526;49.300;2022-11-11T13:55:40;8.00;63.10
67557;DHT22;54387;53.526;49.300;2022-11-11T14:01:07;7.90;63.30
67557;DHT22;54387;53.526;49.300;2022-11-11T14:03:35;7.90;63.30
67557;DHT22;54387;53.526;49.300;2022-11-11T14:13:50;7.90;63.30
67557;DHT22;54387;53.526;49.300;2022-11-11T14:19:46;7.80;63.40
67557;DHT22;54387;53.526;49.300;2022-11-11T14:21:48;7.70;63.50
67557;DHT22;54387;53.526;49.300;2022-11-11T14:24:48;7.70;63.70
67557;DHT22;54387;53.526;49.300;2022-11-11T14:29:48;7.80;63.70
67557;DHT22;54387;53.526;49.300;2022-11-11T14:35:10;7.80;63.60
67557;DHT22;54387;53.526;49.300;2022-11-11T14:40:07;7.80;63.60
67557;DHT22;54387;53.526;49.300;2022-11-11T14:45:00;7.90;63.70
67557;DHT22;54387;53.526;49.300;2022-11-11T14:49:58;7.80;63.70
67557;DHT22;54387;53.526;49.300;2022-11-11T15:00:11;7.80;63.80
67557;DHT22;54387;53.526;49.300;2022-11-11T15:08:15;7.80;63.70
67557;DHT22;54387;53.526;49.300;2022-11-11T15:19:02;7.70;63.90
67557;DHT22;54387;53.526;49.300;2022-11-11T15:21:35;7.70;63.90
67557;DHT22;54387;53.526;49.300;2022-11-11T15:24:14;7.70;63.90
67557;DHT22;54387;53.526;49.300;2022-11-11T15:27:00;7.70;64.00
67557;DHT22;54387;53.526;49.300;2022-11-11T15:29:37;7.70;64.00
67557;DHT22;54387;53.526;49.300;2022-11-11T15:34:56;7.70;64.00
67557;DHT22;54387;53.526;49.300;2022-11-11T15:37:24;7.80;64.00
67557;DHT22;54387;53.526;49.300;2022-11-11T15:39:52;7.80;64.00
67557;DHT22;54387;53.526;49.300;2022-11-11T15:42:31;7.80;64.00
67557;DHT22;54387;53.526;49.300;2022-11-11T15:44:58;7.80;64.00
67557;DHT22;54387;53.526;49.300;2022-11-11T15:47:25;7.80;63.90
67557;DHT22;54387;53.526;49.300;2022-11-11T15:49:52;7.90;63.80
67557;DHT22;54387;53.526;49.300;2022-11-11T15:54:53;7.80;63.80
67557;DHT22;54387;53.526;49.300;2022-11-11T15:57:29;7.80;63.80
67557;DHT22;54387;53.526;49.300;2022-11-11T15:59:59;7.80;63.90
67557;DHT22;54387;53.526;49.300;2022-11-11T16:02:27;7.80;63.90
67557;DHT22;54387;53.526;49.300;2022-11-11T16:04:55;7.80;63.80
67557;DHT22;54387;53.526;49.300;2022-11-11T16:07:23;7.80;63.70
67557;DHT22;54387;53.526;49.300;2022-11-11T16:09:50;7.80;63.70
67557;DHT22;54387;53.526;49.300;2022-11-11T16:12:21;7.80;63.70
67557;DHT22;54387;53.526;49.300;2022-11-11T16:14:48;7.80;63.80
67557;DHT22;54387;53.526;49.300;2022-11-11T16:17:15;7.80;63.70
67557;DHT22;54387;53.526;49.300;2022-11-11T16:19:42;7.80;63.80
67557;DHT22;54387;53.526;49.300;2022-11-11T16:24:36;7.80;63.70
67557;DHT22;54387;53.526;49.300;2022-11-11T16:27:03;7.80;63.90
67557;DHT22;54387;53.526;49.300;2022-11-11T16:29:33;7.80;63.80
67557;DHT22;54387;53.526;49.300;2022-11-11T16:32:01;7.80;63.80
67557;DHT22;54387;53.526;49.300;2022-11-11T16:34:41;7.80;63.70
67557;DHT22;54387;53.526;49.300;2022-11-11T16:37:09;7.80;63.70
67557;DHT22;54387;53.526;49.300;2022-11-11T16:39:36;7.80;63.70
67557;DHT22;54387;53.526;49.300;2022-11-11T16:42:18;7.80;63.70
67557;DHT22;54387;53.526;49.300;2022-11-11T16:50:04;7.80;63.80
67557;DHT22;54387;53.526;49.300;2022-11-11T16:52:36;7.80;63.90
67557;DHT22;54387;53.526;49.300;2022-11-11T16:55:04;7.80;63.90
67557;DHT22;54387;53.526;49.300;2022-11-11T16:57:31;7.80;63.90
67557;DHT22;54387;53.526;49.300;2022-11-11T16:59:59;7.80;63.80
67557;DHT22;54387;53.526;49.300;2022-11-11T17:02:26;7.90;63.90
67557;DHT22;54387;53.526;49.300;2022-11-11T17:04:54;7.80;63.90
67557;DHT22;54387;53.526;49.300;2022-11-11T17:07:37;7.80;63.90
67557;DHT22;54387;53.526;49.300;2022-11-11T17:12:33;7.90;63.90
67557;DHT22;54387;53.526;49.300;2022-11-11T17:14:59;7.90;63.90
67557;DHT22;54387;53.526;49.300;2022-11-11T17:17:28;7.90;63.90
67557;DHT22;54387;53.526;49.300;2022-11-11T17:19:56;7.90;64.40
67557;DHT22;54387;53.526;49.300;2022-11-11T17:22:26;7.80;63.90
67557;DHT22;54387;53.526;49.300;2022-11-11T17:24:57;7.80;63.80
67557;DHT22;54387;53.526;49.300;2022-11-11T17:27:23;7.80;63.90
67557;DHT22;54387;53.526;49.300;2022-11-11T17:29:49;7.80;63.90
67557;DHT22;54387;53.526;49.300;2022-11-11T17:32:15;7.80;63.90
67557;DHT22;54387;53.526;49.300;2022-11-11T17:34:41;7.80;63.90
67557;DHT22;54387;53.526;49.300;2022-11-11T17:37:07;7.80;63.90
67557;DHT22;54387;53.526;49.300;2022-11-11T17:39:34;7.80;63.90
67557;DHT22;54387;53.526;49.300;2022-11-11T17:42:00;7.80;64.00
67557;DHT22;54387;53.526;49.300;2022-11-11T17:44:26;7.80;63.90
67557;DHT22;54387;53.526;49.300;2022-11-11T17:46:52;7.80;63.90
67557;DHT22;54387;53.526;49.300;2022-11-11T17:49:18;7.90;64.00
67557;DHT22;54387;53.526;49.300;2022-11-11T17:51:44;7.80;64.00
67557;DHT22;54387;53.526;49.300;2022-11-11T17:54:10;7.80;64.00
67557;DHT22;54387;53.526;49.300;2022-11-11T17:56:36;7.90;64.10
67557;DHT22;54387;53.526;49.300;2022-11-11T17:59:04;7.90;64.10
67557;DHT22;54387;53.526;49.300;2022-11-11T18:01:33;7.90;64.00
67557;DHT22;54387;53.526;49.300;2022-11-11T18:03:59;7.90;64.00
67557;DHT22;54387;53.526;49.300;2022-11-11T18:06:25;7.90;64.00
67557;DHT22;54387;53.526;49.300;2022-11-11T18:08:51;7.90;64.00
67557;DHT22;54387;53.526;49.300;2022-11-11T18:11:18;8.00;64.00
67557;DHT22;54387;53.526;49.300;2022-11-11T18:13:44;8.00;63.90
67557;DHT22;54387;53.526;49.300;2022-11-11T18:16:13;8.00;63.80
67557;DHT22;54387;53.526;49.300;2022-11-11T18:18:40;8.00;63.80
67557;DHT22;54387;53.526;49.300;2022-11-11T18:21:06;8.00;63.90
67557;DHT22;54387;53.526;49.300;2022-11-11T18:23:33;8.00;63.80
67557;DHT22;54387;53.526;49.300;2022-11-11T18:26:02;8.00;63.90
67557;DHT22;54387;53.526;49.300;2022-11-11T18:28:29;8.00;64.10